Time;durP1;ratioP1;P1;durP2;ratioP2;P2;SDS_P1;SDS_P2;PMS_P1;PMS_P2;Temp;Humidity;BMP_temperature;BMP_pressure;BME280_temperature;BME280_humidity;BME280_pressure;Samples;Min_cycle;Max_cycle;Signal;HPM_P1;HPM_P2
2022/04/12 00:01:11;;;;;;;4.80;2.47;;;11.00;77.30;;;;;;5071036;28;20024;-85
2022/04/12 00:03:37;;;;;;;6.07;2.50;;;10.90;77.50;;;;;;5070235;28;20025;-85
2022/04/12 00:06:03;;;;;;;6.87;2.87;;;10.90;77.60;;;;;;5052481;28;20056;-85
2022/04/12 00:08:29;;;;;;;4.70;2.70;;;10.90;77.70;;;;;;5070655;28;20115;-85
2022/04/12 00:10:54;;;;;;;5.40;2.50;;;10.80;78.00;;;;;;5070905;28;20025;-85
2022/04/12 00:13:22;;;;;;;6.57;2.13;;;10.80;78.10;;;;;;5070470;28;20028;-85
2022/04/12 00:15:48;;;;;;;5.57;2.50;;;10.80;78.20;;;;;;5051982;28;20064;-86
2022/04/12 00:20:59;;;;;;;4.97;2.63;;;10.70;78.50;;;;;;5070608;28;20020;-85
2022/04/12 00:23:25;;;;;;;4.50;2.23;;;10.70;78.50;;;;;;5052727;28;20573;-85
2022/04/12 00:25:53;;;;;;;5.53;2.73;;;10.70;78.70;;;;;;5070207;28;20037;-85
2022/04/12 00:28:19;;;;;;;6.97;3.03;;;10.60;78.50;;;;;;5052654;28;20028;-85
2022/04/12 00:30:46;;;;;;;4.77;2.50;;;10.60;78.90;;;;;;5036161;28;20032;-85
2022/04/12 00:33:12;;;;;;;8.23;2.60;;;10.60;79.30;;;;;;5070384;28;20033;-85
2022/04/12 00:35:38;;;;;;;5.53;2.40;;;10.50;79.30;;;;;;5052091;28;20036;-85
2022/04/12 00:38:13;;;;;;;5.33;2.53;;;10.50;79.70;;;;;;5070275;28;20083;-85
2022/04/12 00:40:40;;;;;;;6.73;2.50;;;10.40;79.90;;;;;;5052464;28;20062;-85
2022/04/12 00:43:06;;;;;;;5.20;2.50;;;10.40;80.30;;;;;;5069795;28;20123;-85
2022/04/12 00:45:32;;;;;;;5.53;2.50;;;10.40;80.50;;;;;;5070037;28;20056;-85
2022/04/12 00:47:58;;;;;;;5.53;2.87;;;10.40;80.50;;;;;;5070186;28;20033;-85
2022/04/12 00:50:23;;;;;;;5.93;2.80;;;10.30;80.70;;;;;;5070509;28;20036;-85
2022/04/12 00:52:52;;;;;;;5.67;3.17;;;10.30;81.00;;;;;;5070041;28;20029;-85
2022/04/12 00:55:17;;;;;;;6.17;2.87;;;10.30;81.00;;;;;;5069888;28;20058;-85
2022/04/12 00:57:43;;;;;;;6.00;2.60;;;10.30;81.20;;;;;;5070017;28;20442;-85
2022/04/12 01:00:11;;;;;;;5.40;2.33;;;10.30;81.30;;;;;;5070596;28;20039;-85
2022/04/12 01:02:39;;;;;;;5.87;2.50;;;10.20;81.60;;;;;;5069961;28;20028;-85
2022/04/12 01:05:05;;;;;;;5.23;2.93;;;10.20;81.80;;;;;;5070294;28;20028;-85
2022/04/12 01:07:32;;;;;;;7.30;2.90;;;10.20;81.70;;;;;;5052155;28;20037;-85
2022/04/12 01:09:58;;;;;;;7.27;2.60;;;10.20;82.00;;;;;;5073941;28;20032;-85
2022/04/12 01:12:28;;;;;;;5.87;2.70;;;10.10;82.50;;;;;;5073810;28;20035;-85
2022/04/12 01:14:54;;;;;;;6.50;3.03;;;10.10;82.70;;;;;;5073893;28;20511;-85
2022/04/12 01:17:20;;;;;;;7.53;3.03;;;10.00;83.00;;;;;;5053787;28;20031;-85
2022/04/12 01:19:46;;;;;;;4.93;2.77;;;10.00;83.20;;;;;;5054060;28;20420;-85
2022/04/12 01:22:24;;;;;;;9.77;3.10;;;10.00;83.40;;;;;;5054005;28;20029;-85
2022/04/12 01:24:50;;;;;;;6.45;2.67;;;9.90;84.30;;;;;;5055227;28;20025;-85
2022/04/12 01:27:16;;;;;;;7.13;2.87;;;9.90;83.80;;;;;;5073134;28;20492;-85
2022/04/12 01:29:41;;;;;;;5.60;2.50;;;9.90;84.00;;;;;;5073057;28;20740;-85
2022/04/12 01:32:08;;;;;;;6.50;3.10;;;9.80;84.20;;;;;;5055244;28;20055;-85
2022/04/12 01:34:37;;;;;;;5.43;2.73;;;9.80;84.40;;;;;;5073462;28;20079;-85
2022/04/12 01:37:03;;;;;;;8.05;3.38;;;9.80;84.50;;;;;;5073666;28;20035;-85
2022/04/12 01:39:32;;;;;;;6.97;3.27;;;9.80;84.70;;;;;;5073539;28;20036;-84
2022/04/12 01:41:58;;;;;;;7.57;2.80;;;9.70;84.80;;;;;;5073212;28;20033;-85
2022/04/12 01:44:24;;;;;;;5.43;2.70;;;9.70;85.00;;;;;;5055597;28;20036;-85
2022/04/12 01:46:50;;;;;;;5.73;2.83;;;9.70;85.20;;;;;;5055172;28;20036;-84
2022/04/12 01:49:16;;;;;;;6.67;3.10;;;9.70;85.40;;;;;;5073213;28;20562;-85
2022/04/12 01:51:42;;;;;;;7.07;2.80;;;9.70;85.70;;;;;;5073244;28;20032;-85
2022/04/12 01:54:08;;;;;;;6.70;3.00;;;9.60;85.90;;;;;;5055281;28;20025;-85
2022/04/12 01:56:34;;;;;;;6.33;2.47;;;9.60;86.10;;;;;;5055039;28;20040;-85
2022/04/12 01:59:02;;;;;;;7.33;3.00;;;9.60;86.20;;;;;;5073101;28;20388;-85
2022/04/12 02:01:28;;;;;;;5.53;2.47;;;9.60;86.40;;;;;;5072797;28;20028;-85
2022/04/12 02:03:54;;;;;;;5.70;2.90;;;9.60;86.50;;;;;;5072996;28;20043;-85
2022/04/12 02:06:20;;;;;;;5.40;2.70;;;9.60;86.60;;;;;;5073005;28;20032;-85
2022/04/12 02:08:46;;;;;;;8.63;3.00;;;9.60;86.50;;;;;;5072859;28;20033;-84
2022/04/12 02:11:12;;;;;;;8.73;2.87;;;9.60;86.70;;;;;;5072976;28;20635;-84
2022/04/12 02:13:37;;;;;;;6.73;3.30;;;9.60;86.80;;;;;;5072636;28;20388;-84
2022/04/12 02:16:03;;;;;;;5.53;2.70;;;9.60;87.00;;;;;;5054817;28;20073;-85
2022/04/12 02:18:29;;;;;;;8.40;3.10;;;9.60;87.00;;;;;;5072129;28;20388;-85
2022/04/12 02:20:55;;;;;;;5.90;3.13;;;9.60;86.90;;;;;;5054377;28;20036;-84
2022/04/12 02:23:21;;;;;;;7.07;3.43;;;9.60;87.10;;;;;;5087126;22;20052;-72
2022/04/12 02:25:47;;;;;;;6.13;3.10;;;9.60;87.20;;;;;;5071523;28;20033;-72
2022/04/12 02:28:15;;;;;;;7.47;3.07;;;9.60;87.40;;;;;;5072909;28;20070;-72
2022/04/12 02:30:41;;;;;;;7.60;3.20;;;9.60;87.70;;;;;;5071522;28;20054;-72
2022/04/12 02:33:06;;;;;;;5.87;2.80;;;9.60;87.90;;;;;;5054662;28;20037;-71
2022/04/12 02:35:32;;;;;;;7.27;3.20;;;9.60;88.10;;;;;;5072687;28;20388;-71
2022/04/12 02:37:58;;;;;;;5.80;3.10;;;9.60;88.30;;;;;;5054610;28;20077;-71
2022/04/12 02:40:24;;;;;;;16.90;8.67;;;9.60;88.50;;;;;;5072719;28;20443;-71
2022/04/12 02:42:50;;;;;;;8.10;4.30;;;9.60;89.20;;;;;;5072533;28;20444;-72
2022/04/12 02:45:16;;;;;;;6.43;3.20;;;9.60;88.50;;;;;;5071218;28;20055;-73
2022/04/12 02:47:42;;;;;;;5.90;2.80;;;9.70;88.50;;;;;;5072506;28;20028;-73
2022/04/12 02:50:08;;;;;;;7.53;3.37;;;9.70;88.70;;;;;;5072717;28;20039;-73
2022/04/12 02:52:34;;;;;;;5.83;2.83;;;9.70;88.40;;;;;;5072359;28;20032;-73
2022/04/12 02:55:00;;;;;;;5.40;2.80;;;9.70;88.60;;;;;;5072680;28;20036;-71
2022/04/12 02:57:26;;;;;;;6.80;3.70;;;9.80;89.10;;;;;;5072194;28;20037;-71
2022/04/12 02:59:52;;;;;;;6.97;3.27;;;9.70;89.10;;;;;;5072593;28;20484;-73
2022/04/12 03:02:18;;;;;;;7.93;3.33;;;9.70;89.20;;;;;;5072346;28;20023;-72
2022/04/12 03:04:44;;;;;;;7.73;3.43;;;9.60;89.10;;;;;;5072093;28;20469;-73
2022/04/12 03:07:10;;;;;;;8.10;3.00;;;9.70;89.30;;;;;;5072192;28;20031;-72
2022/04/12 03:09:36;;;;;;;7.33;3.00;;;9.70;88.60;;;;;;5070902;28;20495;-73
2022/04/12 03:12:02;;;;;;;7.03;3.50;;;9.70;88.30;;;;;;5071845;28;20036;-73
2022/04/12 03:14:28;;;;;;;8.07;3.23;;;9.70;87.90;;;;;;5072303;28;20028;-73
2022/04/12 03:16:54;;;;;;;7.20;3.40;;;9.80;88.10;;;;;;5072329;28;20503;-73
2022/04/12 03:19:20;;;;;;;8.63;3.90;;;9.70;88.60;;;;;;5071762;28;20044;-71
2022/04/12 03:21:46;;;;;;;7.33;3.27;;;9.70;89.10;;;;;;5071820;28;20094;-72
2022/04/12 03:24:12;;;;;;;7.10;3.93;;;9.70;89.30;;;;;;5053861;28;20029;-71
2022/04/12 03:26:38;;;;;;;7.13;3.63;;;9.70;89.50;;;;;;5071596;28;20020;-74
2022/04/12 03:29:04;;;;;;;9.37;3.63;;;9.70;89.80;;;;;;5071887;28;20269;-73
2022/04/12 03:31:30;;;;;;;6.60;3.27;;;9.70;89.60;;;;;;5070820;28;20039;-72
2022/04/12 03:33:56;;;;;;;7.90;3.50;;;9.70;89.60;;;;;;5070195;28;20130;-72
2022/04/12 03:36:21;;;;;;;8.03;4.00;;;9.70;89.50;;;;;;5071449;28;20488;-72
2022/04/12 03:38:51;;;;;;;7.23;3.70;;;9.80;89.60;;;;;;5053309;28;20032;-73
2022/04/12 03:41:21;;;;;;;8.95;3.80;;;9.70;89.70;;;;;;5053606;28;20409;-72
2022/04/12 03:43:47;;;;;;;7.70;3.80;;;9.70;89.70;;;;;;5053331;28;20050;-71
2022/04/12 03:46:13;;;;;;;8.43;3.50;;;9.70;89.90;;;;;;5071303;28;20103;-74
2022/04/12 03:48:40;;;;;;;7.23;3.33;;;9.70;90.10;;;;;;5071292;28;20093;-73
2022/04/12 03:51:06;;;;;;;7.43;3.80;;;9.70;90.10;;;;;;5071694;28;20074;-73
2022/04/12 03:53:33;;;;;;;10.80;3.50;;;9.70;90.10;;;;;;5068251;28;20310;-73
2022/04/12 03:55:59;;;;;;;7.83;3.63;;;9.70;90.20;;;;;;5067228;28;20025;-75
2022/04/12 03:59:02;;;;;;;7.07;3.47;;;9.60;90.30;;;;;;5052530;28;20575;-76
2022/04/12 04:01:29;;;;;;;8.03;3.30;;;9.60;90.40;;;;;;5070148;28;20412;-75
2022/04/12 04:03:55;;;;;;;5.93;3.07;;;9.60;90.50;;;;;;5052626;28;20021;-73
2022/04/12 04:06:22;;;;;;;6.77;3.50;;;9.60;90.50;;;;;;5070130;28;20032;-73
2022/04/12 04:08:48;;;;;;;6.30;3.30;;;9.70;90.30;;;;;;5051860;28;20109;-73
2022/04/12 04:11:14;;;;;;;6.07;3.13;;;9.70;90.50;;;;;;5070212;28;20036;-69
2022/04/12 04:13:40;;;;;;;5.47;2.70;;;9.60;90.70;;;;;;5069793;28;20147;-69
2022/04/12 04:16:06;;;;;;;6.30;3.07;;;9.60;90.70;;;;;;5069930;28;20039;-70
2022/04/12 04:18:33;;;;;;;7.03;3.10;;;9.60;90.90;;;;;;5069731;28;20044;-70
2022/04/12 04:20:59;;;;;;;5.60;3.13;;;9.40;90.80;;;;;;5069734;28;20033;-70
2022/04/12 04:23:25;;;;;;;7.73;3.43;;;9.40;90.90;;;;;;5069394;28;20032;-69
2022/04/12 04:25:51;;;;;;;5.97;3.40;;;9.40;90.70;;;;;;5069177;28;20104;-69
2022/04/12 04:28:21;;;;;;;8.03;3.60;;;9.40;90.80;;;;;;5051432;28;20029;-70
2022/04/12 04:30:50;;;;;;;7.40;3.50;;;9.30;91.10;;;;;;5069603;28;20029;-70
2022/04/12 04:33:17;;;;;;;;;;;9.40;91.30;;;;;;5070154;28;20121;-71
2022/04/12 04:35:47;;;;;;;9.33;4.07;;;9.50;91.40;;;;;;5069437;28;19996;-70
2022/04/12 04:38:13;;;;;;;9.87;4.83;;;9.60;91.60;;;;;;5069523;28;20193;-74
2022/04/12 04:40:39;;;;;;;8.50;3.83;;;9.60;91.60;;;;;;5069179;28;20055;-73
2022/04/12 04:43:07;;;;;;;7.43;3.73;;;9.60;91.60;;;;;;5037687;28;20082;-71
2022/04/12 04:45:34;;;;;;;11.03;3.80;;;9.60;91.30;;;;;;5073282;28;20029;-72
2022/04/12 04:48:03;;;;;;;6.73;3.40;;;9.60;91.30;;;;;;5073590;28;20032;-72
2022/04/12 04:50:31;;;;;;;8.73;3.83;;;9.60;91.20;;;;;;5055512;28;20127;-72
2022/04/12 04:52:58;;;;;;;7.10;3.40;;;9.60;91.00;;;;;;5055792;28;20136;-72
2022/04/12 04:55:24;;;;;;;9.77;3.90;;;9.60;91.00;;;;;;5072973;28;20048;-73
2022/04/12 04:57:54;;;;;;;6.67;3.80;;;9.60;90.90;;;;;;5073369;28;20881;-73
2022/04/12 05:00:22;;;;;;;8.27;3.70;;;9.60;90.90;;;;;;5073021;28;20085;-71
2022/04/12 05:02:51;;;;;;;7.10;3.67;;;9.60;90.90;;;;;;5073066;28;20100;-71
2022/04/12 05:05:17;;;;;;;7.45;3.25;;;9.60;91.00;;;;;;5073183;28;20049;-72
2022/04/12 05:07:46;;;;;;;8.30;3.50;;;9.60;91.10;;;;;;5073119;28;20119;-70
2022/04/12 05:10:17;;;;;;;7.72;3.50;;;9.60;91.20;;;;;;5073463;28;20784;-70
2022/04/12 05:12:44;;;;;;;7.90;3.40;;;9.60;91.10;;;;;;5073318;28;20032;-71
2022/04/12 05:15:11;;;;;;;6.83;3.70;;;9.50;91.30;;;;;;5074066;28;20508;-70
2022/04/12 05:17:37;;;;;;;6.77;3.93;;;9.50;91.50;;;;;;5073385;28;20037;-70
2022/04/12 05:20:05;;;;;;;10.97;4.20;;;9.50;91.60;;;;;;5073540;28;20024;-71
2022/04/12 05:22:31;;;;;;;8.57;3.83;;;9.50;91.60;;;;;;5073591;28;20039;-71
2022/04/12 05:24:57;;;;;;;8.03;3.67;;;9.50;91.40;;;;;;5073691;28;20024;-71
2022/04/12 05:27:23;;;;;;;8.83;4.00;;;9.50;91.60;;;;;;5073437;28;20048;-70
2022/04/12 05:29:49;;;;;;;11.33;4.87;;;9.60;91.80;;;;;;5073512;28;20359;-70
2022/04/12 05:32:15;;;;;;;8.60;3.90;;;9.60;91.60;;;;;;5073835;28;20029;-70
2022/04/12 05:34:45;;;;;;;7.67;3.50;;;9.70;91.40;;;;;;5073861;28;20383;-70
2022/04/12 05:37:11;;;;;;;8.47;3.13;;;9.70;91.40;;;;;;5055557;28;20477;-70
2022/04/12 05:39:37;;;;;;;8.10;3.30;;;9.70;91.20;;;;;;5073693;28;20025;-70
2022/04/12 05:42:03;;;;;;;7.87;3.83;;;9.80;91.00;;;;;;5073564;28;20017;-70
2022/04/12 05:44:33;;;;;;;8.40;3.40;;;10.00;90.80;;;;;;5073437;28;20659;-69
2022/04/12 05:47:00;;;;;;;7.97;3.53;;;10.00;90.70;;;;;;5073701;28;20082;-69
2022/04/12 05:49:27;;;;;;;6.20;3.03;;;10.10;90.50;;;;;;5073542;28;20036;-70
2022/04/12 05:51:53;;;;;;;6.77;2.83;;;10.20;90.30;;;;;;5055497;28;20125;-70
2022/04/12 05:54:20;;;;;;;12.37;2.90;;;10.30;90.10;;;;;;5072751;28;20086;-70
2022/04/12 05:56:46;;;;;;;8.53;3.30;;;10.40;89.80;;;;;;5073655;28;20542;-70
2022/04/12 05:59:12;;;;;;;8.17;3.33;;;10.50;89.60;;;;;;5073235;28;20028;-70
2022/04/12 06:01:38;;;;;;;6.87;2.80;;;10.60;89.50;;;;;;5073398;28;20060;-71
2022/04/12 06:04:05;;;;;;;7.77;3.00;;;10.60;89.20;;;;;;5073170;28;20033;-70
2022/04/12 06:06:32;;;;;;;4.63;2.40;;;10.70;89.00;;;;;;5073167;28;20491;-69
2022/04/12 06:08:59;;;;;;;5.60;2.30;;;10.80;89.20;;;;;;5073277;28;20025;-71
2022/04/12 06:11:26;;;;;;;8.07;2.70;;;10.80;88.00;;;;;;5055264;28;20028;-71
2022/04/12 06:13:52;;;;;;;5.57;3.00;;;10.90;87.80;;;;;;5073373;28;20280;-72
2022/04/12 06:16:18;;;;;;;9.43;3.33;;;11.00;86.80;;;;;;5055121;28;20385;-71
2022/04/12 06:18:43;;;;;;;7.97;3.80;;;11.10;86.60;;;;;;5054979;28;20054;-71
2022/04/12 06:21:09;;;;;;;8.60;3.87;;;11.10;86.40;;;;;;5073323;28;20457;-71
2022/04/12 06:23:35;;;;;;;6.17;3.77;;;11.20;86.00;;;;;;5072863;28;20032;-71
2022/04/12 06:26:01;;;;;;;8.43;3.27;;;11.30;86.10;;;;;;5072814;28;20028;-71
2022/04/12 06:28:29;;;;;;;7.90;3.40;;;11.30;85.70;;;;;;5054804;28;20036;-71
2022/04/12 06:30:57;;;;;;;7.33;3.20;;;11.40;84.80;;;;;;5072958;28;20086;-71
2022/04/12 06:33:24;;;;;;;5.67;3.00;;;11.50;84.30;;;;;;5072653;28;20059;-71
2022/04/12 06:35:50;;;;;;;5.63;2.50;;;11.50;84.10;;;;;;5072731;28;20112;-71
2022/04/12 06:38:16;;;;;;;7.27;3.20;;;11.60;84.10;;;;;;5054543;28;20086;-71
2022/04/12 06:40:44;;;;;;;5.77;3.20;;;11.60;83.50;;;;;;5072793;28;20028;-71
2022/04/12 06:43:11;;;;;;;7.27;3.03;;;11.70;83.60;;;;;;5072441;28;20538;-71
2022/04/12 06:45:38;;;;;;;5.83;3.00;;;11.80;83.60;;;;;;5054432;28;20386;-71
2022/04/12 06:48:04;;;;;;;7.20;3.33;;;11.80;83.40;;;;;;5072113;28;20481;-72
2022/04/12 06:50:32;;;;;;;8.07;3.27;;;11.80;83.10;;;;;;5072378;28;20040;-72
2022/04/12 06:52:59;;;;;;;13.70;4.00;;;12.00;82.20;;;;;;5072301;28;20081;-73
2022/04/12 06:55:26;;;;;;;7.07;3.53;;;12.00;82.10;;;;;;5054375;28;20041;-73
2022/04/12 06:57:52;;;;;;;14.10;4.63;;;12.10;82.10;;;;;;5071996;28;20060;-73
2022/04/12 07:00:19;;;;;;;7.13;3.33;;;12.20;81.70;;;;;;5072043;28;20017;-72
2022/04/12 07:02:46;;;;;;;9.53;3.50;;;12.20;81.60;;;;;;5071905;28;20025;-73
2022/04/12 07:05:12;;;;;;;7.70;3.27;;;12.30;81.30;;;;;;5071881;28;20484;-73
2022/04/12 07:07:39;;;;;;;7.43;3.13;;;12.30;81.30;;;;;;5072143;28;20024;-73
2022/04/12 07:10:07;;;;;;;6.30;3.07;;;12.40;80.70;;;;;;5072126;28;20036;-74
2022/04/12 07:12:35;;;;;;;8.18;4.45;;;12.40;80.50;;;;;;5072127;28;20047;-72
2022/04/12 07:15:03;;;;;;;7.40;3.43;;;12.50;80.50;;;;;;5071976;28;20025;-72
2022/04/12 07:17:29;;;;;;;7.13;3.23;;;12.50;80.30;;;;;;5071709;28;20081;-75
2022/04/12 07:19:55;;;;;;;6.17;3.10;;;12.50;80.40;;;;;;5071744;28;20424;-74
2022/04/12 07:22:21;;;;;;;6.03;3.07;;;12.60;80.50;;;;;;5072152;28;20028;-71
2022/04/12 07:24:47;;;;;;;6.30;2.80;;;12.70;84.50;;;;;;5071696;28;20063;-70
2022/04/12 07:27:13;;;;;;;5.07;2.70;;;12.80;85.90;;;;;;5071347;28;20064;-70
2022/04/12 07:29:40;;;;;;;6.53;2.90;;;13.00;85.30;;;;;;5071615;28;20032;-70
2022/04/12 07:32:06;;;;;;;7.33;3.27;;;13.20;83.70;;;;;;5071696;28;20034;-70
2022/04/12 07:34:32;;;;;;;5.87;3.13;;;13.30;82.90;;;;;;5071505;28;20028;-74
2022/04/12 07:36:58;;;;;;;4.93;2.30;;;13.30;81.60;;;;;;5071352;28;20039;-73
2022/04/12 07:39:24;;;;;;;8.20;3.33;;;13.30;78.80;;;;;;5053483;28;20043;-74
2022/04/12 07:41:51;;;;;;;8.60;3.20;;;13.40;78.50;;;;;;5071318;28;20033;-73
2022/04/12 07:44:19;;;;;;;9.93;3.67;;;13.40;80.70;;;;;;5071536;28;20036;-72
2022/04/12 07:46:45;;;;;;;7.87;2.90;;;13.40;81.10;;;;;;5053385;28;20147;-74
2022/04/12 07:49:12;;;;;;;10.43;3.70;;;13.40;80.60;;;;;;5071501;28;20431;-75
2022/04/12 07:51:39;;;;;;;6.50;2.70;;;13.40;80.20;;;;;;5071867;28;20040;-74
2022/04/12 07:54:06;;;;;;;9.30;2.97;;;13.50;78.70;;;;;;5071509;28;20032;-75
2022/04/12 07:56:33;;;;;;;5.30;2.23;;;13.50;78.50;;;;;;5071389;28;20028;-72
2022/04/12 07:59:00;;;;;;;5.13;2.30;;;13.50;78.10;;;;;;5071509;28;20039;-72
2022/04/12 08:01:25;;;;;;;6.40;2.40;;;13.50;78.10;;;;;;5053394;28;20431;-74
2022/04/12 08:03:52;;;;;;;5.93;2.60;;;13.50;78.10;;;;;;5071385;28;20031;-74
2022/04/12 08:06:18;;;;;;;7.25;2.33;;;13.50;77.60;;;;;;5071114;28;20037;-74
2022/04/12 08:08:44;;;;;;;6.53;2.80;;;13.60;78.10;;;;;;5071336;28;20039;-74
2022/04/12 08:11:10;;;;;;;5.68;2.63;;;13.60;77.80;;;;;;5071499;28;20033;-74
2022/04/12 08:13:36;;;;;;;7.13;2.90;;;13.70;77.70;;;;;;5053383;28;20080;-74
2022/04/12 08:16:03;;;;;;;5.53;2.05;;;13.70;77.40;;;;;;5053577;28;20029;-73
2022/04/12 08:18:29;;;;;;;13.77;2.83;;;13.70;77.40;;;;;;5052720;28;20028;-74
2022/04/12 08:20:55;;;;;;;9.07;2.67;;;13.80;78.00;;;;;;5071718;28;20063;-72
2022/04/12 08:23:23;;;;;;;6.40;2.67;;;13.80;77.40;;;;;;5067943;22;20044;-67
2022/04/12 08:25:49;;;;;;;5.90;2.17;;;13.80;77.50;;;;;;5071397;28;20447;-68
2022/04/12 08:28:15;;;;;;;4.20;2.00;;;13.90;77.40;;;;;;5071245;28;20063;-67
2022/04/12 08:30:42;;;;;;;8.95;2.00;;;13.90;77.40;;;;;;5071371;28;20028;-67
2022/04/12 08:33:08;;;;;;;5.32;1.80;;;13.90;77.40;;;;;;5071390;28;20035;-68
2022/04/12 08:35:34;;;;;;;6.82;2.90;;;14.00;76.70;;;;;;5071169;28;20366;-68
2022/04/12 08:37:59;;;;;;;8.13;2.05;;;14.00;76.80;;;;;;5071284;28;20077;-68
2022/04/12 08:40:25;;;;;;;3.85;1.80;;;14.00;76.40;;;;;;5071375;28;20033;-68
2022/04/12 08:42:53;;;;;;;5.97;2.25;;;14.00;76.50;;;;;;5071374;28;20035;-68
2022/04/12 08:45:19;;;;;;;6.45;1.58;;;14.10;76.70;;;;;;5071032;28;20107;-67
2022/04/12 08:47:45;;;;;;;4.65;1.67;;;14.10;76.70;;;;;;5070953;28;20506;-67
2022/04/12 08:50:11;;;;;;;6.68;1.70;;;14.10;76.90;;;;;;5071176;28;20021;-67
2022/04/12 08:52:38;;;;;;;6.35;2.00;;;14.10;76.80;;;;;;5071232;28;20029;-67
2022/04/12 08:55:05;;;;;;;6.80;1.60;;;14.10;77.00;;;;;;5071202;28;20024;-67
2022/04/12 08:57:31;;;;;;;4.65;1.63;;;14.20;77.10;;;;;;5053071;28;20344;-68
2022/04/12 08:59:58;;;;;;;6.55;1.80;;;14.30;76.70;;;;;;5071250;28;20078;-68
2022/04/12 09:02:24;;;;;;;6.20;2.08;;;14.30;76.50;;;;;;5071252;28;20511;-68
2022/04/12 09:04:50;;;;;;;5.03;1.50;;;14.40;76.70;;;;;;5071058;28;20029;-66
2022/04/12 09:07:17;;;;;;;4.05;1.52;;;14.30;76.40;;;;;;5070763;28;20054;-67
2022/04/12 09:09:44;;;;;;;4.88;1.80;;;14.40;76.30;;;;;;5071203;28;20477;-67
2022/04/12 09:12:14;;;;;;;7.93;2.53;;;14.50;76.00;;;;;;5070969;28;20047;-67
2022/04/12 09:14:46;;;;;;;6.05;2.20;;;14.60;75.50;;;;;;5071105;28;20035;-67
2022/04/12 09:17:18;;;;;;;8.88;2.80;;;14.60;75.60;;;;;;5070940;28;20037;-67
2022/04/12 09:19:47;;;;;;;5.03;1.63;;;14.60;75.80;;;;;;5070887;28;20717;-68
2022/04/12 09:22:34;;;;;;;6.07;1.50;;;14.70;75.80;;;;;;5070987;28;20546;-68
2022/04/12 09:25:02;;;;;;;3.03;1.33;;;14.70;75.70;;;;;;5070853;28;20477;-68
2022/04/12 09:27:30;;;;;;;6.80;1.75;;;14.70;76.30;;;;;;5070584;28;20531;-68
2022/04/12 09:30:05;;;;;;;5.82;2.00;;;14.70;76.50;;;;;;5074202;28;20032;-68
2022/04/12 09:32:37;;;;;;;5.63;2.10;;;14.70;76.70;;;;;;5074505;28;20033;-67
2022/04/12 09:35:04;;;;;;;3.85;1.75;;;14.70;76.20;;;;;;5056727;28;20029;-67
2022/04/12 09:37:33;;;;;;;5.32;2.33;;;14.80;76.10;;;;;;5074391;28;20056;-68
2022/04/12 09:39:59;;;;;;;8.98;2.50;;;14.90;75.80;;;;;;5074181;28;20116;-68
2022/04/12 09:42:51;;;;;;;3.92;1.95;;;15.00;76.20;;;;;;5056371;28;20469;-68
2022/04/12 09:45:24;;;;;;;5.20;1.40;;;15.10;75.90;;;;;;5074205;28;20457;-67
2022/04/12 09:47:53;;;;;;;3.63;1.40;;;15.00;75.90;;;;;;5074119;28;20029;-68
2022/04/12 09:50:24;;;;;;;4.88;1.70;;;15.00;75.40;;;;;;5074092;28;20033;-68
2022/04/12 09:52:57;;;;;;;5.03;1.70;;;15.20;75.40;;;;;;5074163;28;20060;-67
2022/04/12 09:55:42;;;;;;;4.43;1.35;;;15.20;75.40;;;;;;5073960;28;20493;-68
2022/04/12 09:58:11;;;;;;;5.68;1.70;;;15.10;75.50;;;;;;5073985;28;20037;-68
2022/04/12 10:00:39;;;;;;;4.07;1.50;;;15.30;75.00;;;;;;5073590;28;20032;-68
2022/04/12 10:03:07;;;;;;;4.75;1.63;;;15.30;75.30;;;;;;5073430;28;20411;-67
2022/04/12 10:05:33;;;;;;;3.90;1.63;;;15.20;75.90;;;;;;5073289;28;20032;-66
2022/04/12 10:08:02;;;;;;;3.72;1.55;;;15.30;75.60;;;;;;5073160;28;20036;-68
2022/04/12 10:10:29;;;;;;;3.40;1.77;;;15.40;75.30;;;;;;5073234;28;20070;-68
2022/04/12 10:12:57;;;;;;;6.03;1.65;;;15.40;75.50;;;;;;5073096;28;20136;-68
2022/04/12 10:15:24;;;;;;;3.70;1.30;;;15.50;75.90;;;;;;5072905;28;20483;-69
2022/04/12 10:17:51;;;;;;;2.92;1.30;;;15.60;75.70;;;;;;5073097;28;20123;-68
2022/04/12 10:20:18;;;;;;;4.40;1.30;;;15.60;75.70;;;;;;5073069;28;20028;-68
2022/04/12 10:22:47;;;;;;;5.82;1.35;;;15.70;75.40;;;;;;5054830;28;20087;-67
2022/04/12 10:25:22;;;;;;;8.23;1.83;;;15.80;75.20;;;;;;5073097;28;20016;-67
2022/04/12 10:27:52;;;;;;;2.85;1.20;;;15.90;75.00;;;;;;5072715;28;20472;-67
2022/04/12 10:30:18;;;;;;;5.88;1.42;;;16.10;74.70;;;;;;5073198;28;20103;-67
2022/04/12 10:33:08;;;;;;;5.25;1.40;;;16.20;74.40;;;;;;5073251;28;20062;-66
2022/04/12 10:35:43;;;;;;;5.03;1.33;;;16.30;74.10;;;;;;5072747;28;20029;-66
2022/04/12 10:38:20;;;;;;;4.25;1.50;;;16.50;73.10;;;;;;5072510;28;20029;-66
2022/04/12 10:40:51;;;;;;;7.65;1.58;;;16.50;72.70;;;;;;5072241;28;20380;-66
2022/04/12 10:43:30;;;;;;;3.33;1.42;;;16.50;72.90;;;;;;5072648;28;20496;-67
2022/04/12 10:45:58;;;;;;;3.35;1.50;;;16.60;72.60;;;;;;5072700;28;20028;-67
2022/04/12 10:48:26;;;;;;;4.57;1.40;;;16.70;72.20;;;;;;5072400;28;20033;-67
2022/04/12 10:50:55;;;;;;;3.33;1.58;;;16.80;72.50;;;;;;5037879;28;20028;-67
2022/04/12 10:53:40;;;;;;;2.90;1.20;;;16.70;72.90;;;;;;5072375;28;20032;-67
2022/04/12 10:56:14;;;;;;;4.55;1.67;;;16.60;72.50;;;;;;5072389;28;20112;-67
2022/04/12 10:58:41;;;;;;;5.25;1.60;;;16.60;72.60;;;;;;5072184;28;20081;-67
2022/04/12 11:01:14;;;;;;;5.53;1.42;;;16.60;72.30;;;;;;5072377;28;20048;-67
2022/04/12 11:03:40;;;;;;;6.13;1.40;;;16.60;71.90;;;;;;5072120;28;20016;-66
2022/04/12 11:06:30;;;;;;;5.53;1.48;;;16.70;71.60;;;;;;5072212;28;20031;-66
2022/04/12 11:09:08;;;;;;;6.13;2.75;;;16.70;71.50;;;;;;5072060;28;20028;-66
2022/04/12 11:11:40;;;;;;;5.22;2.10;;;16.70;71.40;;;;;;5071861;28;20493;-67
2022/04/12 11:14:28;;;;;;;7.90;1.77;;;16.70;71.50;;;;;;5072092;28;20024;-68
2022/04/12 11:17:15;;;;;;;3.75;1.80;;;16.60;71.40;;;;;;5071886;28;20029;-66
2022/04/12 11:19:54;;;;;;;7.95;2.30;;;16.70;71.40;;;;;;5053471;28;20056;-67
2022/04/12 11:22:23;;;;;;;3.45;1.42;;;16.80;71.50;;;;;;5053944;28;20028;-68
2022/04/12 11:25:16;;;;;;;3.92;1.55;;;16.90;70.80;;;;;;5071671;28;20059;-67
2022/04/12 11:27:42;;;;;;;4.20;1.67;;;16.90;70.60;;;;;;5071542;28;20032;-67
2022/04/12 11:30:13;;;;;;;2.65;1.50;;;17.20;69.60;;;;;;5071777;28;20029;-67
2022/04/12 11:32:40;;;;;;;4.82;1.50;;;17.30;69.30;;;;;;5071503;28;20025;-68
2022/04/12 11:35:09;;;;;;;2.35;1.30;;;17.50;68.80;;;;;;5071905;28;20043;-68
2022/04/12 11:37:39;;;;;;;7.00;1.67;;;17.50;68.80;;;;;;5071224;28;20035;-68
2022/04/12 11:40:05;;;;;;;3.50;1.48;;;17.50;68.60;;;;;;5071676;28;20032;-67
2022/04/12 11:42:32;;;;;;;4.40;1.58;;;17.50;68.90;;;;;;5071408;28;20037;-67
2022/04/12 11:44:57;;;;;;;6.57;1.58;;;17.50;68.80;;;;;;5071346;28;20024;-67
2022/04/12 11:47:28;;;;;;;4.90;1.30;;;17.60;68.90;;;;;;5071353;28;20021;-67
2022/04/12 11:49:54;;;;;;;4.88;1.70;;;17.80;68.20;;;;;;5071350;28;20083;-68
2022/04/12 11:52:20;;;;;;;6.00;1.98;;;17.90;68.00;;;;;;5070598;28;20111;-68
2022/04/12 11:54:49;;;;;;;3.28;1.30;;;18.00;68.20;;;;;;5071327;28;20120;-68
2022/04/12 11:57:21;;;;;;;4.90;1.38;;;18.10;67.10;;;;;;5070925;28;20028;-68
2022/04/12 11:59:51;;;;;;;3.00;1.50;;;18.20;67.50;;;;;;5070727;28;20036;-67
2022/04/12 12:02:30;;;;;;;3.03;1.88;;;18.30;67.00;;;;;;5071056;28;20020;-67
2022/04/12 12:05:01;;;;;;;5.20;1.60;;;18.20;67.60;;;;;;5071226;28;20416;-68
2022/04/12 12:07:28;;;;;;;3.35;1.42;;;18.40;67.40;;;;;;5070755;28;20107;-68
2022/04/12 12:10:09;;;;;;;4.95;1.83;;;18.30;67.70;;;;;;5071046;28;20029;-68
2022/04/12 12:12:39;;;;;;;4.20;1.90;;;18.30;68.00;;;;;;5071072;28;20040;-67
2022/04/12 12:15:15;;;;;;;3.60;1.58;;;18.10;69.00;;;;;;5053473;28;20028;-67
2022/04/12 12:17:44;;;;;;;6.57;2.47;;;18.00;68.90;;;;;;5070859;28;20033;-68
2022/04/12 12:20:10;;;;;;;6.97;2.25;;;18.10;68.60;;;;;;5070981;28;20039;-67
2022/04/12 12:22:37;;;;;;;8.73;1.90;;;18.20;68.30;;;;;;5070822;28;20021;-66
2022/04/12 12:25:04;;;;;;;7.78;2.00;;;18.30;68.50;;;;;;5070907;28;20477;-68
2022/04/12 12:27:39;;;;;;;8.50;3.10;;;18.30;68.80;;;;;;5070744;28;20063;-68
2022/04/12 12:30:19;;;;;;;4.45;2.03;;;18.40;67.60;;;;;;5070781;28;20508;-68
2022/04/12 12:32:44;;;;;;;6.25;2.33;;;18.40;67.60;;;;;;5070697;28;20093;-68
2022/04/12 12:35:13;;;;;;;5.45;1.85;;;18.50;67.20;;;;;;5070639;28;20029;-69
2022/04/12 12:37:40;;;;;;;2.80;1.40;;;18.40;67.90;;;;;;5070591;28;20020;-68
2022/04/12 12:40:19;;;;;;;3.20;1.10;;;18.40;67.90;;;;;;5070871;28;20627;-68
2022/04/12 12:42:46;;;;;;;3.33;1.48;;;18.40;67.90;;;;;;5053010;28;20032;-69
2022/04/12 12:45:15;;;;;;;2.15;1.40;;;18.50;68.40;;;;;;5070711;28;20137;-67
2022/04/12 12:47:43;;;;;;;5.03;1.40;;;18.50;68.80;;;;;;5070618;28;20066;-69
2022/04/12 12:50:13;;;;;;;6.53;1.80;;;18.60;67.50;;;;;;5070834;28;20497;-68
2022/04/12 12:52:40;;;;;;;4.53;2.00;;;18.70;66.10;;;;;;5070609;28;20115;-67
2022/04/12 12:55:12;;;;;;;5.88;1.80;;;18.70;66.50;;;;;;5070759;28;20025;-67
2022/04/12 12:57:42;;;;;;;4.85;1.58;;;18.70;66.60;;;;;;5070464;28;20461;-67